Jump to content


SOUTHWEST AIRLINES FLIGHT WN454 FLOWN ON 08-11-2017 BY CAPTAIN TYLER HANUS

Pilot StatsCaptain Tyler Hanus (LDP525) • 244.8 total hours • 53 total flights [View Logbook]
FLIGHT DETAILS
StatusReceived and approved on 2017-08-11 at 15:08:17
Origin AirportChicago Midway Intl (KMDW) • Chicago, Illinois, United States (620 feet MSL)
Filed Flight PlanFLIGHT PLANNER OFFLINE
Destination AirportMcCarran Intl (KLAS) • Las Vegas, Nevada, United States (2,180 feet MSL)
Alternate AirportNone Filed
AirlineSouthwest Airlines
AircraftBoeing 737-800 | Winglets (73H / B737-800)
FS Aircraft UsedBoeing 737-8H4NGX Southwest Airlines (Warrior One) Winglets
Cruising AltitudeFL360
Distance Flown1,318 nautical miles
Passengers Onboard119 passengers (73.46% full)
DEPARTURE DETAILS
Time Out09:54:44
Taxi Data156,900 lbs total with 30,583 lbs of fuel onboard
Takeoff Data10:12:43 (18 minutes after leaving gate/ramp) • 156,197 lbs total • 5° pitch at 153 knots
Departure METARKMDW 111353Z 26008KT 10SM FEW055 FEW070 BKN200 BKN250 22/17 A2998 RMK AO2 SLP142 T02220167
ARRIVAL DETAILS
Landing Data12:06:31 • 132,685 lbs total • 0° pitch doing 135 knots at a rate of -342.95 feet/minute with 6,090 lbs of fuel onboard
Time In12:12:50 (6 minutes after landing)
Ramp Weight132,407 lbs total
Total Fuel Used24,493 lbs
Total Block Time04:12:34 (4.2 hours) while 24 minutes were spent on the ground
Arrival METARKLAS 111856Z 07014KT 10SM FEW120 FEW150 38/16 A2992 RMK AO2 SLP097 ACC SW-NW TCU DSNT N T03780156
MISCELLANEOUS DETAILS
LiveDISPATCH Version4.8.3.1
FS Version
FSUIPC Version4.96
OS VersionWindows 7 32-bit
Screen Resolution1360 x 768
Pilot's CommentsNo Comments Reported
FLIGHT MAP